createdAt,value
2023-01-15T00:00:06.609Z,9.63
2023-01-15T00:02:52.981Z,9.73
2023-01-15T00:05:39.427Z,9.53
2023-01-15T00:08:25.572Z,10.23
2023-01-15T00:11:13.552Z,9.07
2023-01-15T00:13:59.997Z,8.17
2023-01-15T00:16:46.548Z,6.90
2023-01-15T00:19:32.758Z,7.03
2023-01-15T00:22:18.963Z,7.57
2023-01-15T00:25:23.267Z,9.57
2023-01-15T00:28:13.865Z,7.43
2023-01-15T00:31:00.330Z,8.57
2023-01-15T00:33:46.923Z,6.97
2023-01-15T00:36:34.382Z,7.33
2023-01-15T00:39:21.444Z,8.87
2023-01-15T00:42:08.114Z,11.30
2023-01-15T00:44:56.110Z,6.20
2023-01-15T00:47:43.931Z,9.87
2023-01-15T00:50:30.120Z,7.00
2023-01-15T00:53:16.417Z,6.23
2023-01-15T00:56:02.579Z,6.27
2023-01-15T00:58:48.873Z,6.47
2023-01-15T01:01:36.707Z,6.73
2023-01-15T01:04:23.418Z,6.03
2023-01-15T01:07:09.732Z,6.67
2023-01-15T01:09:56.122Z,5.73
2023-01-15T01:12:42.464Z,6.50
2023-01-15T01:15:28.690Z,6.40
2023-01-15T01:18:16.526Z,8.07
2023-01-15T01:21:05.624Z,7.33
2023-01-15T01:23:51.706Z,6.47
2023-01-15T01:26:37.900Z,5.60
2023-01-15T01:29:26.139Z,6.10
2023-01-15T01:32:13.574Z,6.93
2023-01-15T01:35:01.881Z,6.80
2023-01-15T01:37:50.620Z,5.37
2023-01-15T01:40:41.513Z,11.30
2023-01-15T01:43:28.879Z,8.93
2023-01-15T01:46:15.025Z,7.50
2023-01-15T01:49:02.993Z,5.60
2023-01-15T01:51:52.195Z,4.70
2023-01-15T01:54:39.014Z,5.60
2023-01-15T01:57:25.440Z,6.03
2023-01-15T02:00:14.261Z,7.37
2023-01-15T02:03:00.962Z,6.00
2023-01-15T02:05:50.364Z,5.47
2023-01-15T02:08:39.700Z,5.53
2023-01-15T02:11:26.369Z,5.27
2023-01-15T02:14:16.665Z,5.57
2023-01-15T02:17:07.637Z,5.00
2023-01-15T02:19:59.022Z,6.13
2023-01-15T02:22:54.373Z,5.07
2023-01-15T02:25:52.711Z,4.13
2023-01-15T02:28:41.905Z,4.50
2023-01-15T02:31:29.885Z,6.33
2023-01-15T02:34:18.231Z,4.80
2023-01-15T02:37:06.111Z,4.47
2023-01-15T02:39:52.809Z,4.83
2023-01-15T02:42:39.753Z,3.77
2023-01-15T02:45:29.933Z,5.73
2023-01-15T02:48:17.629Z,4.07
2023-01-15T02:51:09.150Z,4.23
2023-01-15T02:53:58.098Z,3.90
2023-01-15T02:56:45.522Z,3.07
2023-01-15T02:59:34.884Z,4.10
2023-01-15T03:02:24.762Z,4.37
2023-01-15T03:05:14.107Z,4.97
2023-01-15T03:08:01.703Z,5.73
2023-01-15T03:10:49.987Z,3.70
2023-01-15T03:13:40.669Z,4.53
2023-01-15T03:16:35.764Z,5.57
2023-01-15T03:19:25.713Z,5.20
2023-01-15T03:22:16.544Z,4.27
2023-01-15T03:25:05.087Z,3.43
2023-01-15T03:27:54.783Z,4.23
2023-01-15T03:30:41.180Z,4.90
2023-01-15T03:33:28.153Z,6.47
2023-01-15T03:36:17.843Z,4.03
2023-01-15T03:39:04.332Z,5.23
2023-01-15T03:41:56.475Z,4.77
2023-01-15T03:44:46.290Z,3.63
2023-01-15T03:47:39.775Z,6.00
2023-01-15T03:50:28.865Z,4.40
2023-01-15T03:53:18.464Z,5.10
2023-01-15T03:56:07.642Z,6.60
2023-01-15T03:58:55.316Z,6.77
2023-01-15T04:01:43.042Z,6.67
2023-01-15T04:04:29.700Z,6.60
2023-01-15T04:07:16.075Z,5.20
2023-01-15T04:10:03.708Z,5.13
2023-01-15T04:12:50.044Z,6.40
2023-01-15T04:15:36.233Z,6.87
2023-01-15T04:18:24.196Z,5.70
2023-01-15T04:21:10.359Z,4.30
2023-01-15T04:23:56.736Z,6.23
2023-01-15T04:26:44.564Z,7.17
2023-01-15T04:29:30.896Z,5.03
2023-01-15T04:32:17.390Z,4.60
2023-01-15T04:35:03.542Z,5.80
2023-01-15T04:37:49.945Z,5.80
2023-01-15T04:40:53.504Z,3.83
2023-01-15T04:43:58.722Z,4.83
2023-01-15T04:46:46.623Z,6.13
2023-01-15T04:49:33.761Z,5.47
2023-01-15T04:52:20.485Z,4.47
2023-01-15T04:55:06.938Z,3.30
2023-01-15T04:57:53.313Z,5.47
2023-01-15T05:00:41.307Z,4.70
2023-01-15T05:03:27.530Z,3.67
2023-01-15T05:06:14.493Z,3.53
2023-01-15T05:09:01.241Z,4.87
2023-01-15T05:11:47.275Z,4.93
2023-01-15T05:14:33.735Z,3.60
2023-01-15T05:17:21.262Z,3.20
2023-01-15T05:20:08.271Z,3.57
2023-01-15T05:22:54.311Z,3.33
2023-01-15T05:25:40.905Z,3.73
2023-01-15T05:28:27.249Z,4.23
2023-01-15T05:31:15.005Z,5.13
2023-01-15T05:34:03.026Z,4.20
2023-01-15T05:36:49.523Z,5.70
2023-01-15T05:39:35.916Z,11.37
2023-01-15T05:42:22.146Z,6.70
2023-01-15T05:45:09.271Z,5.37
2023-01-15T05:47:55.405Z,3.83
2023-01-15T05:50:43.022Z,5.53
2023-01-15T05:53:29.586Z,6.63
2023-01-15T05:56:16.145Z,7.77
2023-01-15T05:59:02.556Z,7.67
2023-01-15T06:01:49.100Z,5.10
2023-01-15T06:04:35.625Z,4.77
2023-01-15T06:07:23.103Z,4.40
2023-01-15T06:10:09.917Z,5.37
2023-01-15T06:12:56.280Z,7.50
2023-01-15T06:15:43.124Z,8.00
2023-01-15T06:18:29.706Z,7.87
2023-01-15T06:21:16.192Z,9.80
2023-01-15T06:24:04.214Z,8.00
2023-01-15T06:26:50.439Z,6.80
2023-01-15T06:29:36.568Z,9.27
2023-01-15T06:32:22.534Z,5.70
2023-01-15T06:35:09.262Z,6.90
2023-01-15T06:37:55.628Z,8.60
2023-01-15T06:40:43.157Z,8.13
2023-01-15T06:43:47.080Z,8.43
2023-01-15T06:46:51.085Z,7.87
2023-01-15T06:49:37.883Z,6.47
2023-01-15T06:52:24.929Z,7.23
2023-01-15T06:55:11.737Z,6.83
2023-01-15T06:57:59.708Z,5.87
2023-01-15T07:00:53.434Z,5.43
2023-01-15T07:03:39.906Z,6.73
2023-01-15T07:06:26.614Z,7.60
2023-01-15T07:09:13.034Z,6.17
2023-01-15T07:11:59.712Z,5.90
2023-01-15T07:14:47.487Z,7.57
2023-01-15T07:17:33.746Z,6.40
2023-01-15T07:20:21.780Z,5.93
2023-01-15T07:23:08.174Z,6.27
2023-01-15T07:25:54.972Z,5.43
2023-01-15T07:28:41.526Z,5.43
2023-01-15T07:31:29.783Z,4.23
2023-01-15T07:34:16.163Z,4.27
2023-01-15T07:37:02.315Z,3.83
2023-01-15T07:39:48.564Z,4.47
2023-01-15T07:42:52.130Z,3.37
2023-01-15T07:46:02.907Z,3.53
2023-01-15T07:49:11.748Z,3.30
2023-01-15T07:51:57.901Z,4.77
2023-01-15T07:54:43.966Z,4.50
2023-01-15T07:57:30.109Z,4.37
2023-01-15T08:00:17.404Z,3.67
2023-01-15T08:03:03.754Z,4.40
2023-01-15T08:05:51.326Z,4.17
2023-01-15T08:08:37.788Z,3.37
2023-01-15T08:11:41.816Z,4.30
2023-01-15T08:14:45.697Z,4.17
2023-01-15T08:17:34.219Z,4.70
2023-01-15T08:20:21.402Z,4.40
2023-01-15T08:23:10.793Z,4.80
2023-01-15T08:26:00.048Z,5.27
2023-01-15T08:28:46.786Z,5.83
2023-01-15T08:31:33.264Z,5.67
2023-01-15T08:34:19.855Z,4.53
2023-01-15T08:37:06.065Z,6.70
2023-01-15T08:39:53.767Z,9.50
2023-01-15T08:42:40.648Z,7.23
2023-01-15T08:45:27.060Z,6.67
2023-01-15T08:48:13.828Z,5.33
2023-01-15T08:51:00.285Z,5.57
2023-01-15T08:53:46.525Z,6.07
2023-01-15T08:56:34.714Z,4.90
2023-01-15T08:59:21.203Z,5.77
2023-01-15T09:02:07.697Z,7.03
2023-01-15T09:04:54.648Z,5.13
2023-01-15T09:07:40.929Z,5.63
2023-01-15T09:10:27.490Z,6.50
2023-01-15T09:13:16.732Z,5.67
2023-01-15T09:16:03.467Z,5.57
2023-01-15T09:18:49.787Z,5.07
2023-01-15T09:21:36.116Z,5.60
2023-01-15T09:24:22.156Z,5.90
2023-01-15T09:27:08.747Z,4.90
2023-01-15T09:29:56.607Z,4.77
2023-01-15T09:32:43.098Z,5.73
2023-01-15T09:35:29.449Z,6.40
2023-01-15T09:38:16.260Z,5.10
2023-01-15T09:41:08.451Z,4.60
2023-01-15T09:43:58.205Z,4.23
2023-01-15T09:46:51.190Z,4.43
2023-01-15T09:49:42.653Z,4.67
2023-01-15T09:52:35.032Z,4.83
2023-01-15T09:55:23.162Z,3.17
2023-01-15T09:58:11.554Z,4.23
2023-01-15T10:00:58.303Z,3.70
2023-01-15T10:03:49.105Z,3.90
2023-01-15T10:06:40.887Z,3.40
2023-01-15T10:09:35.203Z,3.63
2023-01-15T10:12:36.762Z,4.60
2023-01-15T10:15:29.183Z,4.37
2023-01-15T10:18:17.994Z,4.83
2023-01-15T10:21:19.443Z,4.27
2023-01-15T10:24:08.261Z,4.20
2023-01-15T10:26:55.802Z,4.00
2023-01-15T10:29:44.210Z,4.77
2023-01-15T10:32:35.200Z,4.50
2023-01-15T10:35:34.914Z,5.00
2023-01-15T10:38:25.626Z,3.67
2023-01-15T10:41:21.487Z,5.33
2023-01-15T10:44:12.600Z,3.77
2023-01-15T10:47:01.390Z,4.53
2023-01-15T10:49:49.220Z,4.80
2023-01-15T10:52:37.820Z,3.70
2023-01-15T10:55:27.289Z,6.83
2023-01-15T10:58:18.312Z,4.67
2023-01-15T11:01:06.188Z,5.13
2023-01-15T11:03:53.182Z,3.43
2023-01-15T11:06:39.835Z,4.13
2023-01-15T11:09:31.432Z,3.90
2023-01-15T11:12:40.734Z,3.70
2023-01-15T11:15:46.145Z,2.80
2023-01-15T11:18:54.059Z,2.83
2023-01-15T11:21:41.885Z,2.30
2023-01-15T11:24:28.504Z,2.60
2023-01-15T11:27:16.480Z,2.50
2023-01-15T11:30:04.110Z,2.30
2023-01-15T11:32:55.817Z,2.77
2023-01-15T11:35:50.689Z,2.50
2023-01-15T11:38:44.116Z,2.30
2023-01-15T11:41:47.667Z,2.37
2023-01-15T11:44:51.361Z,2.90
2023-01-15T11:47:54.959Z,2.97
2023-01-15T11:50:49.234Z,4.53
2023-01-15T11:53:36.496Z,9.43
2023-01-15T11:56:25.233Z,7.97
2023-01-15T11:59:12.514Z,4.97
2023-01-15T12:02:01.425Z,6.27
2023-01-15T12:04:52.505Z,5.17
2023-01-15T12:07:41.731Z,2.97
2023-01-15T12:10:42.962Z,7.93
2023-01-15T12:13:31.930Z,3.00
2023-01-15T12:16:24.772Z,5.43
2023-01-15T12:19:13.364Z,10.40
2023-01-15T12:22:05.063Z,7.10
2023-01-15T12:25:02.401Z,3.53
2023-01-15T12:28:00.599Z,5.00
2023-01-15T12:30:54.864Z,2.97
2023-01-15T12:33:44.005Z,3.00
2023-01-15T12:36:32.848Z,8.80
2023-01-15T12:39:21.351Z,5.90
2023-01-15T12:42:29.858Z,4.07
2023-01-15T12:45:19.889Z,3.90
2023-01-15T12:48:13.468Z,3.70
2023-01-15T12:51:02.108Z,3.00
2023-01-15T12:53:51.219Z,3.20
2023-01-15T12:56:43.469Z,3.87
2023-01-15T12:59:33.978Z,9.23
2023-01-15T13:02:23.940Z,3.20
2023-01-15T13:05:16.720Z,3.13
2023-01-15T13:08:06.061Z,7.00
2023-01-15T13:10:53.136Z,3.23
2023-01-15T13:13:40.691Z,3.20
2023-01-15T13:16:33.224Z,4.00
2023-01-15T13:19:28.028Z,3.73
2023-01-15T13:22:16.128Z,3.13
2023-01-15T13:25:08.761Z,4.97
2023-01-15T13:28:07.053Z,5.07
2023-01-15T13:30:58.949Z,18.83
2023-01-15T13:33:48.369Z,14.10
2023-01-15T13:36:36.626Z,6.60
2023-01-15T13:39:25.386Z,5.33
2023-01-15T13:42:32.981Z,3.27
2023-01-15T13:45:27.895Z,4.17
2023-01-15T13:48:16.443Z,3.07
2023-01-15T13:51:05.950Z,2.83
2023-01-15T13:53:52.431Z,2.83
2023-01-15T13:56:40.027Z,4.97
2023-01-15T13:59:34.427Z,2.77
2023-01-15T14:02:28.322Z,3.17
2023-01-15T14:05:31.710Z,3.83
2023-01-15T14:08:26.252Z,4.93
2023-01-15T14:11:27.675Z,3.97
2023-01-15T14:14:25.877Z,3.73
2023-01-15T14:17:21.751Z,2.80
2023-01-15T14:20:15.359Z,2.80
2023-01-15T14:23:09.595Z,3.60
2023-01-15T14:26:01.463Z,2.70
2023-01-15T14:28:55.466Z,3.13
2023-01-15T14:31:51.935Z,3.67
2023-01-15T14:34:38.549Z,2.80
2023-01-15T14:37:27.714Z,2.37
2023-01-15T14:40:19.485Z,2.50
2023-01-15T14:43:11.227Z,1.93
2023-01-15T14:45:57.971Z,2.43
2023-01-15T14:48:44.737Z,2.00
2023-01-15T14:51:33.318Z,2.00
2023-01-15T14:54:20.909Z,2.77
2023-01-15T14:57:08.800Z,3.97
2023-01-15T15:00:00.358Z,3.40
2023-01-15T15:02:48.285Z,5.37
2023-01-15T15:05:35.694Z,2.93
2023-01-15T15:08:22.450Z,3.13
2023-01-15T15:11:33.743Z,4.43
2023-01-15T15:14:21.883Z,9.10
2023-01-15T15:17:18.593Z,18.17
2023-01-15T15:20:20.164Z,12.77
2023-01-15T15:23:10.772Z,39.87
2023-01-15T15:25:57.894Z,27.70
2023-01-15T15:28:44.086Z,14.40
2023-01-15T15:31:36.902Z,8.50
2023-01-15T15:34:27.931Z,9.07
2023-01-15T15:37:16.291Z,12.97
2023-01-15T15:40:05.018Z,12.53
2023-01-15T15:43:10.856Z,14.23
2023-01-15T15:46:16.387Z,22.70
2023-01-15T15:49:05.693Z,12.47
2023-01-15T15:51:54.284Z,10.00
2023-01-15T15:54:40.532Z,23.00
2023-01-15T15:57:28.561Z,38.13
2023-01-15T16:00:18.324Z,22.70
2023-01-15T16:03:07.182Z,21.57
2023-01-15T16:05:58.239Z,23.60
2023-01-15T16:08:52.789Z,34.87
2023-01-15T16:11:39.964Z,18.70
2023-01-15T16:14:26.794Z,34.17
2023-01-15T16:17:13.453Z,38.70
2023-01-15T16:20:00.167Z,60.33
2023-01-15T16:22:47.184Z,69.27
2023-01-15T16:25:37.105Z,41.30
2023-01-15T16:28:25.120Z,27.00
2023-01-15T16:31:11.922Z,37.20
2023-01-15T16:33:59.107Z,46.70
2023-01-15T16:36:47.072Z,17.80
2023-01-15T16:39:37.849Z,8.47
2023-01-15T16:42:27.688Z,6.47
2023-01-15T16:45:21.740Z,9.00
2023-01-15T16:48:12.445Z,9.83
2023-01-15T16:50:59.171Z,14.17
2023-01-15T16:53:45.237Z,11.17
2023-01-15T16:56:51.455Z,6.20
2023-01-15T16:59:58.778Z,9.70
2023-01-15T17:02:46.404Z,9.30
2023-01-15T17:05:32.616Z,9.33
2023-01-15T17:08:20.223Z,6.03
2023-01-15T17:11:07.494Z,3.70
2023-01-15T17:14:07.967Z,7.00
2023-01-15T17:19:50.300Z,3.07
2023-01-15T17:22:37.183Z,4.93
2023-01-15T17:25:24.783Z,13.43
2023-01-15T17:28:12.911Z,4.13
2023-01-15T17:31:00.355Z,10.27
2023-01-15T17:33:46.885Z,6.87
2023-01-15T17:36:34.680Z,6.47
2023-01-15T17:39:21.004Z,5.07
2023-01-15T17:42:13.521Z,3.00
2023-01-15T17:45:00.193Z,3.57
2023-01-15T17:47:46.640Z,4.67
2023-01-15T17:50:32.792Z,5.33
2023-01-15T17:53:20.703Z,4.03
2023-01-15T17:56:25.124Z,10.43
2023-01-15T17:59:29.018Z,4.90
2023-01-15T18:02:33.965Z,7.03
2023-01-15T18:05:32.982Z,4.47
2023-01-15T18:08:20.753Z,3.97
2023-01-15T18:11:07.168Z,4.80
2023-01-15T18:13:55.783Z,4.93
2023-01-15T18:16:42.507Z,3.47
2023-01-15T18:19:29.186Z,4.47
2023-01-15T18:22:16.109Z,6.83
2023-01-15T18:25:04.163Z,5.77
2023-01-15T18:27:51.412Z,4.73
2023-01-15T18:30:40.308Z,5.37
2023-01-15T18:33:26.737Z,7.57
2023-01-15T18:36:13.782Z,3.57
2023-01-15T18:39:06.156Z,3.40
2023-01-15T18:42:11.788Z,3.20
2023-01-15T18:45:15.798Z,2.73
2023-01-15T18:48:03.018Z,2.57
2023-01-15T18:50:49.511Z,6.00
2023-01-15T18:53:35.814Z,14.27
2023-01-15T18:56:36.443Z,16.27
2023-01-15T18:59:24.434Z,18.50
2023-01-15T19:02:11.009Z,19.47
2023-01-15T19:04:57.595Z,17.73
2023-01-15T19:07:43.949Z,28.07
2023-01-15T19:10:30.388Z,35.77
2023-01-15T19:13:18.812Z,26.50
2023-01-15T19:16:25.237Z,32.77
2023-01-15T19:19:11.764Z,45.77
2023-01-15T19:22:15.236Z,31.90
2023-01-15T19:25:01.498Z,60.17
2023-01-15T19:27:48.914Z,41.47
2023-01-15T19:30:36.469Z,32.23
2023-01-15T19:33:24.583Z,24.87
2023-01-15T19:36:11.284Z,19.63
2023-01-15T19:38:57.369Z,15.83
2023-01-15T19:42:00.865Z,16.80
2023-01-15T19:45:07.023Z,13.97
2023-01-15T19:48:11.030Z,14.97
2023-01-15T19:50:58.922Z,11.67
2023-01-15T19:53:45.529Z,8.67
2023-01-15T19:56:31.566Z,8.33
2023-01-15T19:59:17.999Z,7.27
2023-01-15T20:02:04.699Z,8.03
2023-01-15T20:04:50.831Z,12.57
2023-01-15T20:07:38.939Z,15.93
2023-01-15T20:10:26.474Z,13.93
2023-01-15T20:13:35.246Z,9.40
2023-01-15T20:16:22.735Z,10.17
2023-01-15T20:19:09.250Z,46.73
2023-01-15T20:21:55.283Z,28.17
2023-01-15T20:24:44.410Z,16.47
2023-01-15T20:27:31.461Z,11.43
2023-01-15T20:30:20.253Z,13.13
2023-01-15T20:33:06.422Z,10.03
2023-01-15T20:35:54.118Z,8.83
2023-01-15T20:38:40.668Z,10.73
2023-01-15T20:41:46.244Z,11.77
2023-01-15T20:44:50.144Z,6.90
2023-01-15T20:47:53.869Z,8.17
2023-01-15T20:50:41.413Z,8.77
2023-01-15T20:53:28.987Z,9.07
2023-01-15T20:56:16.205Z,6.47
2023-01-15T20:59:03.881Z,6.60
2023-01-15T21:01:50.712Z,7.70
2023-01-15T21:04:37.325Z,8.50
2023-01-15T21:07:24.936Z,12.13
2023-01-15T21:10:13.338Z,13.27
2023-01-15T21:12:59.629Z,12.93
2023-01-15T21:15:53.665Z,17.70
2023-01-15T21:18:43.188Z,12.00
2023-01-15T21:21:29.661Z,7.40
2023-01-15T21:24:16.116Z,8.60
2023-01-15T21:27:02.499Z,8.93
2023-01-15T21:29:48.611Z,8.47
2023-01-15T21:32:36.438Z,7.60
2023-01-15T21:35:22.892Z,5.93
2023-01-15T21:38:09.683Z,5.87
2023-01-15T21:40:56.366Z,6.33
2023-01-15T21:44:00.117Z,5.70
2023-01-15T21:46:46.425Z,3.87
2023-01-15T21:49:34.270Z,3.90
2023-01-15T21:52:20.905Z,5.63
2023-01-15T21:55:07.863Z,5.33
2023-01-15T21:57:54.221Z,5.37
2023-01-15T22:00:41.034Z,4.20
2023-01-15T22:03:27.811Z,4.30
2023-01-15T22:06:16.152Z,4.10
2023-01-15T22:09:03.432Z,4.10
2023-01-15T22:11:50.560Z,5.40
2023-01-15T22:14:37.037Z,4.87
2023-01-15T22:17:23.477Z,4.87
2023-01-15T22:20:11.278Z,4.07
2023-01-15T22:22:59.356Z,5.50
2023-01-15T22:25:46.302Z,3.87
2023-01-15T22:28:32.693Z,3.50
2023-01-15T22:31:18.966Z,3.83
2023-01-15T22:34:05.140Z,3.23
2023-01-15T22:36:52.203Z,4.70
2023-01-15T22:39:39.666Z,3.23
2023-01-15T22:42:27.626Z,3.00
2023-01-15T22:45:14.583Z,2.10
2023-01-15T22:48:01.065Z,3.30
2023-01-15T22:50:47.213Z,3.53
2023-01-15T22:53:33.382Z,2.83
2023-01-15T22:56:21.165Z,2.43
2023-01-15T22:59:07.737Z,2.83
2023-01-15T23:01:54.405Z,2.83
2023-01-15T23:04:40.965Z,2.40
2023-01-15T23:07:27.434Z,2.97
2023-01-15T23:10:14.743Z,5.47
2023-01-15T23:13:02.879Z,5.50
2023-01-15T23:15:56.640Z,6.57
2023-01-15T23:18:43.022Z,6.30
2023-01-15T23:21:29.471Z,8.10
2023-01-15T23:24:16.021Z,5.70
2023-01-15T23:27:02.092Z,6.20
2023-01-15T23:29:49.699Z,10.67
2023-01-15T23:32:36.172Z,7.03
2023-01-15T23:35:22.871Z,7.73
2023-01-15T23:38:09.180Z,4.17
2023-01-15T23:40:56.129Z,4.50
2023-01-15T23:44:08.846Z,5.00
2023-01-15T23:46:56.765Z,4.87
2023-01-15T23:49:43.161Z,3.77
2023-01-15T23:52:29.696Z,5.63
2023-01-15T23:55:16.485Z,8.20
2023-01-15T23:58:02.773Z,9.23
